createdAt,value
2022-09-16T00:01:36.609Z,3.40
2022-09-16T00:04:05.665Z,3.17
2022-09-16T00:06:35.005Z,2.60
2022-09-16T00:09:04.201Z,3.20
2022-09-16T00:11:35.595Z,3.30
2022-09-16T00:14:05.565Z,2.67
2022-09-16T00:16:36.061Z,2.57
2022-09-16T00:19:06.019Z,2.80
2022-09-16T00:21:35.357Z,3.40
2022-09-16T00:24:04.652Z,2.80
2022-09-16T00:26:34.977Z,3.17
2022-09-16T00:29:04.678Z,2.70
2022-09-16T00:31:33.803Z,2.70
2022-09-16T00:34:04.730Z,2.90
2022-09-16T00:36:34.003Z,3.07
2022-09-16T00:39:03.457Z,2.97
2022-09-16T00:41:33.777Z,2.70
2022-09-16T00:44:04.831Z,2.43
2022-09-16T00:46:37.789Z,2.67
2022-09-16T00:49:14.229Z,2.63
2022-09-16T00:51:45.425Z,2.47
2022-09-16T00:54:15.446Z,3.00
2022-09-16T00:56:48.761Z,2.60
2022-09-16T00:59:24.826Z,2.80
2022-09-16T01:01:55.242Z,1.97
2022-09-16T01:04:29.010Z,2.53
2022-09-16T01:06:58.823Z,2.20
2022-09-16T01:09:29.717Z,2.43
2022-09-16T01:11:58.922Z,2.10
2022-09-16T01:14:46.935Z,2.20
2022-09-16T01:17:23.425Z,2.03
2022-09-16T01:20:13.344Z,2.00
2022-09-16T01:23:03.760Z,2.33
2022-09-16T01:25:46.761Z,2.30
2022-09-16T01:29:00.874Z,2.40
2022-09-16T01:31:38.989Z,2.33
2022-09-16T01:34:18.003Z,2.10
2022-09-16T01:36:53.254Z,2.13
2022-09-16T01:39:30.503Z,2.40
2022-09-16T01:42:25.294Z,2.13
2022-09-16T01:45:01.976Z,2.17
2022-09-16T01:47:39.650Z,1.60
2022-09-16T01:50:16.385Z,2.00
2022-09-16T01:52:54.790Z,2.17
2022-09-16T01:55:30.055Z,1.50
2022-09-16T01:58:03.937Z,2.20
2022-09-16T02:00:34.494Z,1.87
2022-09-16T02:03:09.088Z,2.10
2022-09-16T02:05:46.239Z,2.50
2022-09-16T02:08:19.501Z,1.63
2022-09-16T02:10:52.699Z,2.10
2022-09-16T02:13:25.534Z,2.50
2022-09-16T02:15:57.993Z,2.40
2022-09-16T02:18:32.781Z,2.47
2022-09-16T02:21:04.318Z,2.10
2022-09-16T02:23:39.988Z,2.30
2022-09-16T02:26:13.884Z,2.13
2022-09-16T02:28:46.443Z,2.20
2022-09-16T02:31:16.912Z,2.07
2022-09-16T02:33:53.132Z,2.70
2022-09-16T02:36:24.698Z,2.40
2022-09-16T02:38:58.004Z,2.07
2022-09-16T02:41:27.203Z,2.93
2022-09-16T02:43:56.543Z,2.27
2022-09-16T02:46:36.005Z,2.73
2022-09-16T02:49:14.175Z,2.87
2022-09-16T02:51:51.381Z,2.30
2022-09-16T02:54:26.660Z,2.20
2022-09-16T02:56:57.649Z,2.60
2022-09-16T02:59:26.920Z,2.20
2022-09-16T03:01:56.470Z,2.67
2022-09-16T03:04:26.884Z,2.50
2022-09-16T03:06:56.490Z,2.43
2022-09-16T03:09:26.352Z,2.30
2022-09-16T03:12:18.276Z,2.87
2022-09-16T03:15:14.150Z,2.20
2022-09-16T03:18:02.147Z,2.20
2022-09-16T03:20:42.091Z,2.30
2022-09-16T03:23:19.373Z,3.10
2022-09-16T03:25:58.104Z,2.73
2022-09-16T03:28:30.869Z,2.43
2022-09-16T03:31:04.653Z,2.27
2022-09-16T03:33:39.247Z,3.00
2022-09-16T03:36:13.167Z,2.40
2022-09-16T03:38:44.001Z,2.73
2022-09-16T03:41:13.806Z,3.07
2022-09-16T03:43:53.708Z,3.23
2022-09-16T03:46:23.697Z,2.33
2022-09-16T03:48:53.329Z,2.77
2022-09-16T03:51:24.159Z,2.50
2022-09-16T03:53:53.474Z,2.77
2022-09-16T03:56:24.724Z,3.23
2022-09-16T03:58:54.051Z,3.27
2022-09-16T04:01:22.928Z,3.57
2022-09-16T04:03:52.548Z,3.30
2022-09-16T04:06:22.930Z,3.40
2022-09-16T04:08:51.880Z,3.50
2022-09-16T04:11:21.131Z,3.13
2022-09-16T04:13:50.176Z,3.00
2022-09-16T04:16:22.556Z,3.83
2022-09-16T04:18:51.801Z,2.93
2022-09-16T04:21:22.310Z,2.83
2022-09-16T04:23:51.610Z,2.90
2022-09-16T04:26:20.696Z,3.93
2022-09-16T04:28:50.160Z,4.20
2022-09-16T04:31:19.542Z,3.77
2022-09-16T04:33:49.343Z,3.80
2022-09-16T04:36:19.976Z,3.60
2022-09-16T04:38:50.974Z,3.60
2022-09-16T04:41:21.848Z,3.63
2022-09-16T04:43:54.004Z,3.57
2022-09-16T04:46:23.441Z,3.40
2022-09-16T04:48:54.065Z,3.50
2022-09-16T04:51:23.755Z,4.23
2022-09-16T04:53:55.072Z,4.07
2022-09-16T04:56:26.072Z,3.80
2022-09-16T04:58:56.657Z,3.60
2022-09-16T05:01:27.929Z,4.63
2022-09-16T05:04:00.076Z,4.77
2022-09-16T05:06:31.088Z,9.00
2022-09-16T05:09:02.221Z,4.20
2022-09-16T05:11:33.677Z,4.40
2022-09-16T05:14:04.378Z,4.33
2022-09-16T05:16:34.119Z,3.93
2022-09-16T05:19:05.154Z,4.60
2022-09-16T05:21:36.765Z,4.60
2022-09-16T05:24:09.667Z,4.33
2022-09-16T05:26:42.134Z,4.70
2022-09-16T05:29:14.030Z,4.50
2022-09-16T05:31:44.734Z,5.53
2022-09-16T05:34:15.605Z,8.37
2022-09-16T05:36:47.740Z,5.60
2022-09-16T05:39:24.040Z,8.40
2022-09-16T05:41:56.862Z,6.10
2022-09-16T05:44:26.667Z,7.27
2022-09-16T05:46:55.783Z,8.70
2022-09-16T05:49:25.853Z,7.80
2022-09-16T05:51:55.347Z,7.37
2022-09-16T05:54:25.805Z,6.80
2022-09-16T05:56:54.754Z,6.90
2022-09-16T05:59:24.431Z,5.63
2022-09-16T06:01:53.458Z,6.30
2022-09-16T06:04:22.377Z,5.70
2022-09-16T06:06:51.598Z,5.53
2022-09-16T06:09:25.658Z,6.17
2022-09-16T06:12:00.970Z,5.47
2022-09-16T06:14:31.187Z,5.77
2022-09-16T06:17:00.375Z,5.63
2022-09-16T06:19:29.523Z,6.10
2022-09-16T06:21:58.919Z,6.47
2022-09-16T06:24:29.258Z,6.80
2022-09-16T06:26:58.455Z,6.03
2022-09-16T06:29:27.727Z,6.33
2022-09-16T06:31:56.729Z,7.20
2022-09-16T06:34:26.859Z,6.80
2022-09-16T06:36:55.695Z,8.30
2022-09-16T06:39:24.720Z,7.80
2022-09-16T06:41:55.420Z,7.80
2022-09-16T06:44:33.865Z,6.90
2022-09-16T06:47:02.884Z,7.30
2022-09-16T06:49:32.751Z,6.70
2022-09-16T06:52:01.998Z,5.57
2022-09-16T06:54:31.064Z,6.30
2022-09-16T06:57:01.877Z,6.87
2022-09-16T06:59:31.322Z,7.00
2022-09-16T07:02:00.473Z,8.03
2022-09-16T07:04:29.726Z,6.73
2022-09-16T07:07:15.286Z,5.13
2022-09-16T07:09:44.238Z,7.10
2022-09-16T07:12:19.408Z,5.00
2022-09-16T07:14:48.765Z,5.00
2022-09-16T07:17:18.015Z,5.90
2022-09-16T07:19:47.775Z,3.50
2022-09-16T07:22:16.628Z,2.80
2022-09-16T07:24:46.327Z,3.80
2022-09-16T07:27:17.085Z,3.43
2022-09-16T07:29:46.188Z,2.93
2022-09-16T07:32:15.039Z,3.30
2022-09-16T07:34:44.190Z,5.40
2022-09-16T07:37:13.840Z,3.90
2022-09-16T07:39:43.383Z,2.87
2022-09-16T07:42:12.286Z,2.70
2022-09-16T07:44:42.796Z,2.70
2022-09-16T07:47:11.749Z,3.20
2022-09-16T07:49:41.066Z,2.40
2022-09-16T07:52:10.243Z,2.47
2022-09-16T07:54:39.661Z,4.00
2022-09-16T07:57:08.564Z,2.70
2022-09-16T07:59:37.739Z,2.37
2022-09-16T08:02:09.322Z,2.50
2022-09-16T08:04:38.697Z,3.30
2022-09-16T08:07:08.344Z,2.17
2022-09-16T08:09:42.138Z,3.43
2022-09-16T08:12:16.649Z,4.53
2022-09-16T08:14:45.867Z,2.80
2022-09-16T08:17:16.470Z,4.60
2022-09-16T08:19:45.772Z,2.40
2022-09-16T08:22:14.805Z,2.80
2022-09-16T08:24:43.999Z,3.83
2022-09-16T08:27:12.951Z,2.60
2022-09-16T08:29:41.944Z,2.57
2022-09-16T08:32:11.731Z,2.90
2022-09-16T08:34:42.342Z,2.43
2022-09-16T08:37:11.421Z,2.50
2022-09-16T08:39:41.238Z,1.97
2022-09-16T08:42:32.326Z,2.07
2022-09-16T08:45:14.412Z,2.30
2022-09-16T08:47:55.260Z,2.13
2022-09-16T08:50:30.631Z,2.10
2022-09-16T08:53:03.714Z,2.20
2022-09-16T08:55:36.671Z,3.10
2022-09-16T08:58:12.209Z,1.90
2022-09-16T09:00:44.540Z,4.20
2022-09-16T09:03:20.259Z,2.60
2022-09-16T09:05:53.867Z,2.40
2022-09-16T09:08:41.412Z,2.40
2022-09-16T09:11:18.042Z,3.03
2022-09-16T09:13:59.332Z,2.57
2022-09-16T09:16:38.667Z,3.10
2022-09-16T09:19:31.667Z,3.20
2022-09-16T09:22:10.049Z,7.10
2022-09-16T09:24:56.775Z,3.60
2022-09-16T09:27:32.520Z,4.80
2022-09-16T09:30:10.980Z,2.93
2022-09-16T09:32:52.968Z,2.23
2022-09-16T09:35:36.518Z,3.50
2022-09-16T09:38:31.191Z,3.33
2022-09-16T09:41:05.548Z,2.90
2022-09-16T09:43:41.337Z,3.37
2022-09-16T09:46:15.952Z,2.57
2022-09-16T09:48:48.503Z,3.17
2022-09-16T09:51:24.233Z,2.60
2022-09-16T09:53:58.229Z,3.10
2022-09-16T09:56:32.472Z,2.43
2022-09-16T09:59:12.935Z,4.60
2022-09-16T10:01:42.394Z,5.00
2022-09-16T10:04:15.970Z,2.60
2022-09-16T10:06:46.636Z,3.40
2022-09-16T10:09:18.647Z,3.40
2022-09-16T10:11:52.680Z,2.97
2022-09-16T10:14:32.138Z,2.70
2022-09-16T10:17:05.132Z,2.90
2022-09-16T10:19:39.059Z,2.43
2022-09-16T10:22:18.986Z,2.30
2022-09-16T10:24:56.601Z,3.10
2022-09-16T10:27:28.725Z,3.20
2022-09-16T10:30:15.671Z,3.00
2022-09-16T10:32:51.633Z,2.10
2022-09-16T10:35:24.398Z,2.77
2022-09-16T10:37:56.742Z,2.40
2022-09-16T10:40:28.473Z,2.60
2022-09-16T10:43:03.317Z,3.40
2022-09-16T10:45:35.767Z,3.37
2022-09-16T10:48:09.584Z,2.40
2022-09-16T10:50:39.279Z,2.90
2022-09-16T10:53:24.512Z,3.70
2022-09-16T10:56:04.056Z,4.47
2022-09-16T10:58:33.718Z,3.23
2022-09-16T11:01:34.738Z,2.80
2022-09-16T11:04:30.119Z,3.10
2022-09-16T11:07:09.443Z,2.73
2022-09-16T11:09:50.594Z,3.57
2022-09-16T11:12:38.226Z,2.70
2022-09-16T11:15:18.754Z,2.57
2022-09-16T11:18:00.382Z,2.73
2022-09-16T11:20:58.607Z,3.03
2022-09-16T11:23:43.752Z,2.87
2022-09-16T11:26:22.094Z,2.83
2022-09-16T11:29:18.466Z,3.50
2022-09-16T11:31:57.324Z,2.80
2022-09-16T11:34:41.470Z,2.90
2022-09-16T11:37:17.604Z,3.10
2022-09-16T11:40:01.311Z,3.10
2022-09-16T11:42:36.060Z,3.13
2022-09-16T11:45:24.481Z,3.23
2022-09-16T11:48:17.419Z,3.30
2022-09-16T11:50:53.910Z,3.10
2022-09-16T11:53:56.361Z,3.33
2022-09-16T11:56:33.513Z,3.40
2022-09-16T11:59:07.198Z,4.10
2022-09-16T12:01:44.693Z,6.13
2022-09-16T12:04:19.258Z,8.30
2022-09-16T12:06:56.002Z,4.00
2022-09-16T12:09:33.262Z,4.60
2022-09-16T12:12:12.276Z,3.87
2022-09-16T12:14:45.166Z,3.80
2022-09-16T12:17:20.071Z,2.80
2022-09-16T12:19:53.973Z,3.10
2022-09-16T12:22:26.488Z,4.10
2022-09-16T12:25:04.398Z,3.50
2022-09-16T12:27:41.006Z,4.10
2022-09-16T12:30:18.226Z,3.70
2022-09-16T12:32:57.773Z,2.80
2022-09-16T12:35:32.659Z,3.07
2022-09-16T12:38:02.295Z,3.80
2022-09-16T12:40:37.514Z,3.20
2022-09-16T12:43:33.691Z,3.40
2022-09-16T12:46:37.186Z,3.83
2022-09-16T12:49:32.465Z,3.13
2022-09-16T12:52:24.029Z,2.03
2022-09-16T12:55:25.002Z,2.60
2022-09-16T12:58:17.071Z,2.00
2022-09-16T13:00:58.761Z,2.70
2022-09-16T13:03:31.717Z,3.20
2022-09-16T13:06:07.827Z,3.03
2022-09-16T13:08:38.143Z,3.60
2022-09-16T13:11:53.707Z,2.30
2022-09-16T13:14:00.467Z,2.70
2022-09-16T13:16:33.337Z,2.47
2022-09-16T13:19:35.630Z,2.23
2022-09-16T13:22:18.115Z,2.60
2022-09-16T13:24:51.755Z,2.60
2022-09-16T13:27:34.664Z,4.30
2022-09-16T13:30:28.637Z,2.43
2022-09-16T13:33:03.978Z,4.20
2022-09-16T13:35:42.166Z,2.80
2022-09-16T13:38:27.219Z,2.87
2022-09-16T13:41:00.988Z,2.60
2022-09-16T13:43:35.608Z,2.93
2022-09-16T13:46:10.775Z,3.00
2022-09-16T13:48:47.123Z,3.50
2022-09-16T13:51:19.686Z,3.60
2022-09-16T13:53:53.192Z,3.23
2022-09-16T13:56:44.747Z,2.73
2022-09-16T13:59:33.613Z,2.80
2022-09-16T14:02:15.522Z,3.10
2022-09-16T14:05:05.396Z,4.00
2022-09-16T14:07:44.409Z,3.30
2022-09-16T14:10:23.294Z,4.00
2022-09-16T14:13:02.148Z,3.03
2022-09-16T14:15:36.845Z,3.20
2022-09-16T14:18:07.727Z,3.43
2022-09-16T14:20:36.700Z,3.60
2022-09-16T14:23:07.963Z,2.67
2022-09-16T14:25:39.311Z,2.60
2022-09-16T14:28:22.417Z,2.50
2022-09-16T14:30:54.181Z,3.67
2022-09-16T14:33:29.004Z,3.40
2022-09-16T14:35:59.299Z,4.00
2022-09-16T14:38:45.466Z,2.60
2022-09-16T14:41:24.815Z,2.60
2022-09-16T14:43:56.173Z,2.73
2022-09-16T14:46:25.279Z,2.60
2022-09-16T14:48:54.992Z,2.50
2022-09-16T14:51:27.543Z,3.00
2022-09-16T14:54:12.285Z,2.47
2022-09-16T14:56:45.123Z,2.50
2022-09-16T14:59:15.850Z,2.30
2022-09-16T15:01:45.734Z,2.77
2022-09-16T15:04:21.331Z,2.83
2022-09-16T15:06:55.302Z,3.00
2022-09-16T15:09:30.637Z,2.20
2022-09-16T15:12:02.654Z,3.30
2022-09-16T15:14:31.785Z,2.23
2022-09-16T15:17:03.193Z,3.03
2022-09-16T15:19:36.816Z,2.70
2022-09-16T15:22:09.411Z,2.30
2022-09-16T15:24:42.887Z,2.60
2022-09-16T15:27:13.556Z,3.20
2022-09-16T15:29:52.045Z,2.73
2022-09-16T15:32:27.662Z,3.00
2022-09-16T15:35:14.515Z,2.50
2022-09-16T15:37:43.593Z,2.60
2022-09-16T15:40:23.676Z,3.83
2022-09-16T15:43:06.870Z,5.10
2022-09-16T15:45:36.130Z,3.20
2022-09-16T15:48:09.213Z,3.07
2022-09-16T15:50:47.045Z,3.57
2022-09-16T15:53:21.653Z,3.03
2022-09-16T15:55:59.333Z,3.20
2022-09-16T15:58:42.263Z,2.70
2022-09-16T16:01:16.047Z,2.47
2022-09-16T16:03:53.204Z,3.10
2022-09-16T16:06:23.822Z,2.93
2022-09-16T16:08:55.040Z,2.70
2022-09-16T16:11:24.543Z,2.40
2022-09-16T16:13:58.505Z,3.07
2022-09-16T16:16:32.483Z,2.37
2022-09-16T16:19:02.107Z,3.20
2022-09-16T16:21:31.026Z,2.60
2022-09-16T16:24:01.206Z,2.63
2022-09-16T16:26:30.189Z,2.20
2022-09-16T16:29:00.943Z,2.43
2022-09-16T16:31:30.944Z,2.83
2022-09-16T16:34:00.493Z,3.40
2022-09-16T16:36:29.635Z,2.67
2022-09-16T16:38:58.542Z,2.80
2022-09-16T16:41:28.084Z,2.73
2022-09-16T16:43:57.088Z,2.63
2022-09-16T16:46:28.122Z,2.90
2022-09-16T16:48:57.887Z,2.43
2022-09-16T16:51:27.035Z,3.00
2022-09-16T16:53:57.058Z,2.60
2022-09-16T16:56:25.991Z,3.37
2022-09-16T16:58:56.522Z,2.47
2022-09-16T17:01:28.428Z,2.23
2022-09-16T17:03:58.562Z,2.77
2022-09-16T17:06:27.979Z,2.63
2022-09-16T17:08:57.677Z,2.27
2022-09-16T17:11:27.973Z,2.33
2022-09-16T17:14:03.342Z,2.60
2022-09-16T17:16:36.655Z,2.47
2022-09-16T17:19:05.883Z,2.50
2022-09-16T17:21:37.732Z,3.93
2022-09-16T17:24:07.614Z,2.20
2022-09-16T17:26:36.625Z,3.10
2022-09-16T17:29:14.779Z,2.50
2022-09-16T17:31:47.732Z,2.23
2022-09-16T17:34:18.084Z,2.87
2022-09-16T17:36:49.084Z,2.63
2022-09-16T17:39:20.819Z,3.00
2022-09-16T17:41:51.487Z,2.20
2022-09-16T17:44:21.257Z,2.30
2022-09-16T17:46:51.857Z,1.70
2022-09-16T17:49:22.619Z,2.33
2022-09-16T17:51:52.709Z,2.37
2022-09-16T17:54:22.013Z,2.43
2022-09-16T17:56:51.743Z,2.73
2022-09-16T17:59:21.701Z,1.97
2022-09-16T18:01:52.435Z,3.27
2022-09-16T18:04:22.068Z,2.10
2022-09-16T18:06:51.690Z,1.70
2022-09-16T18:09:21.048Z,3.00
2022-09-16T18:11:50.453Z,3.20
2022-09-16T18:14:23.294Z,2.90
2022-09-16T18:16:54.385Z,3.13
2022-09-16T18:19:24.243Z,2.97
2022-09-16T18:21:53.367Z,2.10
2022-09-16T18:24:22.375Z,2.20
2022-09-16T18:26:51.350Z,6.10
2022-09-16T18:29:21.040Z,3.20
2022-09-16T18:31:52.871Z,2.90
2022-09-16T18:34:24.221Z,2.63
2022-09-16T18:36:53.327Z,2.90
2022-09-16T18:39:22.659Z,3.00
2022-09-16T18:41:51.622Z,3.60
2022-09-16T18:44:23.916Z,4.20
2022-09-16T18:46:53.909Z,3.23
2022-09-16T18:49:27.405Z,2.60
2022-09-16T18:51:56.723Z,2.67
2022-09-16T18:54:28.852Z,3.03
2022-09-16T18:56:59.220Z,3.10
2022-09-16T18:59:31.941Z,3.37
2022-09-16T19:02:02.884Z,3.03
2022-09-16T19:04:35.169Z,2.53
2022-09-16T19:07:08.217Z,2.60
2022-09-16T19:09:40.176Z,3.20
2022-09-16T19:12:12.581Z,4.03
2022-09-16T19:14:42.315Z,3.70
2022-09-16T19:17:11.563Z,4.20
2022-09-16T19:19:42.854Z,3.73
2022-09-16T19:22:12.455Z,2.90
2022-09-16T19:24:42.379Z,3.33
2022-09-16T19:27:11.766Z,3.90
2022-09-16T19:29:40.698Z,4.83
2022-09-16T19:32:09.836Z,2.30
2022-09-16T19:34:39.105Z,6.70
2022-09-16T19:37:09.997Z,2.93
2022-09-16T19:39:39.711Z,5.63
2022-09-16T19:42:08.941Z,3.00
2022-09-16T19:44:38.714Z,2.63
2022-09-16T19:47:07.757Z,2.80
2022-09-16T19:49:36.674Z,3.27
2022-09-16T19:52:05.867Z,5.30
2022-09-16T19:54:36.327Z,2.03
2022-09-16T19:57:05.994Z,2.80
2022-09-16T19:59:35.159Z,2.37
2022-09-16T20:02:04.289Z,4.27
2022-09-16T20:04:33.567Z,4.73
2022-09-16T20:07:02.528Z,5.80
2022-09-16T20:09:31.838Z,7.37
2022-09-16T20:12:02.179Z,5.00
2022-09-16T20:14:34.435Z,4.67
2022-09-16T20:17:04.308Z,4.60
2022-09-16T20:19:33.737Z,4.87
2022-09-16T20:22:02.989Z,4.00
2022-09-16T20:24:32.714Z,3.97
2022-09-16T20:27:05.108Z,8.27
2022-09-16T20:29:34.590Z,5.93
2022-09-16T20:32:04.627Z,3.77
2022-09-16T20:34:33.548Z,3.80
2022-09-16T20:37:03.411Z,4.67
2022-09-16T20:39:32.658Z,5.77
2022-09-16T20:42:03.025Z,4.50
2022-09-16T20:44:32.728Z,6.20
2022-09-16T20:47:02.233Z,4.40
2022-09-16T20:49:31.235Z,3.83
2022-09-16T20:52:00.168Z,4.00
2022-09-16T20:54:29.118Z,4.23
2022-09-16T20:56:58.046Z,4.57
2022-09-16T20:59:28.414Z,4.60
2022-09-16T21:02:02.176Z,2.83
2022-09-16T21:04:32.277Z,4.53
2022-09-16T21:07:01.096Z,3.90
2022-09-16T21:09:29.985Z,3.93
2022-09-16T21:11:59.150Z,3.57
2022-09-16T21:14:29.997Z,3.07
2022-09-16T21:16:59.451Z,3.43
2022-09-16T21:19:28.304Z,2.50
2022-09-16T21:21:57.514Z,3.37
2022-09-16T21:24:26.954Z,3.00
2022-09-16T21:26:55.953Z,4.33
2022-09-16T21:29:25.129Z,4.90
2022-09-16T21:31:56.766Z,5.70
2022-09-16T21:34:25.951Z,2.90
2022-09-16T21:36:59.129Z,2.63
2022-09-16T21:39:28.340Z,5.50
2022-09-16T21:41:57.257Z,3.10
2022-09-16T21:44:26.838Z,4.50
2022-09-16T21:46:57.422Z,4.03
2022-09-16T21:49:27.183Z,3.50
2022-09-16T21:51:58.088Z,3.97
2022-09-16T21:54:28.220Z,3.60
2022-09-16T21:56:57.475Z,2.93
2022-09-16T21:59:26.589Z,2.63
2022-09-16T22:02:02.785Z,3.70
2022-09-16T22:04:33.146Z,2.93
2022-09-16T22:07:02.001Z,3.57
2022-09-16T22:09:31.961Z,3.10
2022-09-16T22:12:01.784Z,3.30
2022-09-16T22:14:30.647Z,3.10
2022-09-16T22:17:01.298Z,3.37
2022-09-16T22:19:30.544Z,2.97
2022-09-16T22:21:59.379Z,2.53
2022-09-16T22:24:28.771Z,2.37
2022-09-16T22:26:58.382Z,2.17
2022-09-16T22:29:27.589Z,2.30
2022-09-16T22:31:56.530Z,3.07
2022-09-16T22:34:27.011Z,2.00
2022-09-16T22:36:56.114Z,2.43
2022-09-16T22:39:25.097Z,2.40
2022-09-16T22:41:54.219Z,2.70
2022-09-16T22:44:23.260Z,2.73
2022-09-16T22:46:52.241Z,5.20
2022-09-16T22:49:21.421Z,3.00
2022-09-16T22:51:52.110Z,4.87
2022-09-16T22:54:21.348Z,2.17
2022-09-16T22:56:50.229Z,2.87
2022-09-16T22:59:21.014Z,3.23
2022-09-16T23:01:50.986Z,2.50
2022-09-16T23:04:20.384Z,2.23
2022-09-16T23:06:51.326Z,3.20
2022-09-16T23:09:20.616Z,2.10
2022-09-16T23:11:49.571Z,2.20
2022-09-16T23:14:26.676Z,2.80
2022-09-16T23:16:56.135Z,2.90
2022-09-16T23:19:25.343Z,3.00
2022-09-16T23:21:56.287Z,2.80
2022-09-16T23:24:25.689Z,2.53
2022-09-16T23:26:55.132Z,2.80
2022-09-16T23:29:24.373Z,4.17
2022-09-16T23:31:53.592Z,2.47
2022-09-16T23:34:23.231Z,2.97
2022-09-16T23:36:52.598Z,3.27
2022-09-16T23:39:22.910Z,2.50
2022-09-16T23:41:52.539Z,2.30
2022-09-16T23:44:22.659Z,2.77
2022-09-16T23:46:51.647Z,2.90
2022-09-16T23:49:20.659Z,3.23
2022-09-16T23:51:50.372Z,2.80
2022-09-16T23:54:19.406Z,3.00
2022-09-16T23:56:49.894Z,3.33
2022-09-16T23:59:18.828Z,3.40
